Time;durP1;ratioP1;P1;durP2;ratioP2;P2;SDS_P1;SDS_P2;PMS_P1;PMS_P2;Temp;Humidity;BMP_temperature;BMP_pressure;BME280_temperature;BME280_humidity;BME280_pressure;Samples;Min_cycle;Max_cycle;Signal;HPM_P1;HPM_P2
2023/11/10 00:02:08;;;;;;;1.33;0.40;;;7.50;99.90;;;;;;5074857;28;21088;-82
2023/11/10 00:04:35;;;;;;;0.60;0.40;;;7.50;99.90;;;;;;5075358;28;20496;-82
2023/11/10 00:07:02;;;;;;;0.40;0.40;;;7.50;99.90;;;;;;5075149;28;20452;-82
2023/11/10 00:09:29;;;;;;;0.30;0.30;;;7.40;99.90;;;;;;5075032;28;20445;-83
2023/11/10 00:11:57;;;;;;;1.70;0.73;;;7.30;99.90;;;;;;5074802;28;20439;-83
2023/11/10 00:14:25;;;;;;;0.30;0.30;;;7.30;99.90;;;;;;5074936;28;20464;-82
2023/11/10 00:16:50;;;;;;;0.30;0.20;;;7.30;99.90;;;;;;5075038;28;20448;-83
2023/11/10 00:19:17;;;;;;;0.30;0.20;;;7.60;99.90;;;;;;5074901;28;20471;-83
2023/11/10 00:21:44;;;;;;;0.50;0.40;;;7.30;99.90;;;;;;5074810;28;20215;-83
2023/11/10 00:24:12;;;;;;;0.30;0.30;;;7.30;99.90;;;;;;5074357;28;20475;-83
2023/11/10 00:26:39;;;;;;;0.30;0.30;;;7.30;99.90;;;;;;5074853;28;20829;-82
2023/11/10 00:29:07;;;;;;;0.30;0.30;;;7.30;99.90;;;;;;5074888;28;20540;-83
2023/11/10 00:31:34;;;;;;;0.30;0.30;;;7.30;99.90;;;;;;5074776;28;20441;-82
2023/11/10 00:34:01;;;;;;;0.50;0.50;;;7.20;99.90;;;;;;5074990;28;20457;-83
2023/11/10 00:36:28;;;;;;;0.30;0.30;;;7.20;99.90;;;;;;5074384;28;20429;-83
2023/11/10 00:38:55;;;;;;;0.50;0.50;;;7.10;99.90;;;;;;5074654;28;20468;-83
2023/11/10 00:41:21;;;;;;;0.40;0.30;;;7.10;99.90;;;;;;5073590;28;21015;-83
2023/11/10 00:43:49;;;;;;;0.40;0.40;;;7.00;99.90;;;;;;5074415;28;20930;-83
2023/11/10 00:46:18;;;;;;;0.37;0.30;;;6.90;99.90;;;;;;5074674;28;20449;-83
2023/11/10 00:48:45;;;;;;;0.30;0.30;;;6.90;99.90;;;;;;5074869;28;20441;-83
2023/11/10 00:51:11;;;;;;;0.30;0.30;;;6.80;99.90;;;;;;5074670;28;20957;-83
2023/11/10 00:53:38;;;;;;;0.30;0.30;;;6.80;99.90;;;;;;5074844;28;20991;-83
2023/11/10 00:56:06;;;;;;;0.40;0.30;;;6.70;99.90;;;;;;5074759;28;20448;-82
2023/11/10 00:58:33;;;;;;;0.40;0.30;;;6.70;99.90;;;;;;5074327;28;20441;-82
2023/11/10 01:00:59;;;;;;;0.50;0.40;;;6.70;99.90;;;;;;5074347;28;21031;-83
2023/11/10 01:03:27;;;;;;;0.30;0.30;;;6.70;99.90;;;;;;5074361;28;20453;-82
2023/11/10 01:05:54;;;;;;;0.30;0.20;;;6.70;99.90;;;;;;5074567;28;20430;-82
2023/11/10 01:08:21;;;;;;;0.30;0.30;;;6.70;99.90;;;;;;5074801;28;20433;-83
2023/11/10 01:10:48;;;;;;;0.30;0.20;;;6.70;99.90;;;;;;5074453;28;20445;-83
2023/11/10 01:13:15;;;;;;;0.30;0.30;;;6.60;99.90;;;;;;5074752;28;20902;-82
2023/11/10 01:15:42;;;;;;;0.77;0.30;;;6.60;99.90;;;;;;5074675;28;21024;-82
2023/11/10 01:18:08;;;;;;;0.30;0.20;;;6.60;99.90;;;;;;5074721;28;20441;-82
2023/11/10 01:20:36;;;;;;;0.30;0.30;;;6.60;99.90;;;;;;5075274;28;20468;-83
2023/11/10 01:23:03;;;;;;;0.50;0.50;;;6.50;99.90;;;;;;5096191;28;20516;-81
2023/11/10 01:25:31;;;;;;;0.40;0.40;;;6.60;99.90;;;;;;5074111;28;20476;-83
2023/11/10 01:27:58;;;;;;;0.87;0.40;;;6.60;99.90;;;;;;5073861;28;20966;-82
2023/11/10 01:30:25;;;;;;;0.50;0.40;;;6.60;99.90;;;;;;5073676;28;20925;-82
2023/11/10 01:32:51;;;;;;;0.80;0.37;;;6.60;99.90;;;;;;5073834;28;20859;-83
2023/11/10 01:35:18;;;;;;;0.30;0.30;;;6.60;99.90;;;;;;5074080;28;20449;-83
2023/11/10 01:37:46;;;;;;;0.43;0.30;;;6.70;99.90;;;;;;5074225;28;20460;-83
2023/11/10 01:40:14;;;;;;;0.40;0.30;;;6.70;99.90;;;;;;5073926;28;20448;-83
2023/11/10 01:42:41;;;;;;;0.50;0.40;;;6.70;99.90;;;;;;5074064;28;20514;-83
2023/11/10 01:45:08;;;;;;;0.40;0.30;;;6.70;99.90;;;;;;5073442;28;20480;-83
2023/11/10 01:47:36;;;;;;;0.67;0.30;;;6.70;99.90;;;;;;5073798;28;20455;-83
2023/11/10 01:50:03;;;;;;;0.30;0.30;;;6.70;99.90;;;;;;5073687;28;20532;-83
2023/11/10 01:52:31;;;;;;;1.07;0.80;;;6.70;99.90;;;;;;5076429;28;20522;-83
2023/11/10 01:54:59;;;;;;;0.50;0.30;;;6.70;99.90;;;;;;5077735;28;20469;-83
2023/11/10 01:57:26;;;;;;;0.33;0.33;;;6.80;99.90;;;;;;5077875;28;20452;-83
2023/11/10 01:59:56;;;;;;;0.30;0.30;;;6.80;99.90;;;;;;5077489;28;20452;-83
2023/11/10 02:02:22;;;;;;;0.30;0.30;;;6.80;99.90;;;;;;5077827;28;20480;-83
2023/11/10 02:04:49;;;;;;;0.33;0.33;;;6.90;99.90;;;;;;5077604;28;20470;-83
2023/11/10 02:07:16;;;;;;;0.30;0.30;;;7.70;99.90;;;;;;5077398;28;20432;-83
2023/11/10 02:09:43;;;;;;;0.30;0.30;;;6.90;99.90;;;;;;5077878;28;20437;-83
2023/11/10 02:12:11;;;;;;;0.40;0.30;;;7.00;99.90;;;;;;5077295;28;20925;-83
2023/11/10 02:14:38;;;;;;;0.30;0.30;;;7.00;99.90;;;;;;5077288;28;20467;-82
2023/11/10 02:17:05;;;;;;;0.60;0.40;;;7.00;99.90;;;;;;5077450;28;20444;-83
2023/11/10 02:19:32;;;;;;;0.30;0.30;;;7.00;99.90;;;;;;5077397;28;20452;-82
2023/11/10 02:21:59;;;;;;;0.40;0.33;;;6.90;99.90;;;;;;5077115;28;20571;-82
2023/11/10 02:24:27;;;;;;;0.40;0.30;;;7.00;99.90;;;;;;5077117;28;20960;-82
2023/11/10 02:26:57;;;;;;;0.50;0.50;;;7.00;99.90;;;;;;5077038;28;20444;-82
2023/11/10 02:29:25;;;;;;;0.37;0.33;;;6.90;99.90;;;;;;5077303;28;20451;-83
2023/11/10 02:31:54;;;;;;;1.17;0.33;;;7.00;99.90;;;;;;5077318;28;20440;-82
2023/11/10 02:34:21;;;;;;;0.40;0.40;;;6.90;99.90;;;;;;5077203;28;20473;-83
2023/11/10 02:36:51;;;;;;;0.40;0.40;;;6.90;99.90;;;;;;5077057;28;20440;-82
2023/11/10 02:39:17;;;;;;;0.30;0.30;;;6.90;99.90;;;;;;5077045;28;20445;-82
2023/11/10 02:41:44;;;;;;;0.30;0.30;;;6.90;99.90;;;;;;5076839;28;20480;-82
2023/11/10 02:44:13;;;;;;;0.33;0.30;;;6.90;99.90;;;;;;5076775;28;20488;-82
2023/11/10 02:46:40;;;;;;;0.37;0.30;;;6.80;99.90;;;;;;5076986;28;20455;-82
2023/11/10 02:49:07;;;;;;;0.40;0.30;;;6.80;99.90;;;;;;5076653;28;20952;-82
2023/11/10 02:51:34;;;;;;;0.30;0.30;;;6.90;99.90;;;;;;5076823;28;20441;-83
2023/11/10 02:54:00;;;;;;;0.40;0.30;;;6.90;99.90;;;;;;5076516;28;20464;-82
2023/11/10 02:56:27;;;;;;;0.40;0.30;;;6.80;99.90;;;;;;5076932;28;20449;-83
2023/11/10 02:58:54;;;;;;;0.40;0.40;;;6.80;99.90;;;;;;5076959;28;20441;-82
2023/11/10 03:01:23;;;;;;;0.50;0.50;;;6.80;99.90;;;;;;5076631;28;20992;-82
2023/11/10 03:03:50;;;;;;;0.57;0.40;;;6.80;99.90;;;;;;5076064;28;20544;-83
2023/11/10 03:06:17;;;;;;;0.30;0.30;;;6.70;99.90;;;;;;5076509;28;20452;-83
2023/11/10 03:08:44;;;;;;;0.70;0.30;;;6.60;99.90;;;;;;5076535;28;20448;-83
2023/11/10 03:11:11;;;;;;;0.60;0.40;;;6.50;99.90;;;;;;5076928;28;20451;-83
2023/11/10 03:13:41;;;;;;;0.30;0.30;;;6.50;99.90;;;;;;5077041;28;20465;-82
2023/11/10 03:16:08;;;;;;;0.30;0.30;;;6.60;99.90;;;;;;5077310;28;20452;-82
2023/11/10 03:18:36;;;;;;;0.30;0.23;;;6.50;99.90;;;;;;5077326;28;20449;-83
2023/11/10 03:21:04;;;;;;;0.30;0.27;;;6.40;99.90;;;;;;5076721;28;20455;-82
2023/11/10 03:23:30;;;;;;;0.30;0.20;;;6.50;99.90;;;;;;5076942;28;20526;-83
2023/11/10 03:25:57;;;;;;;0.30;0.20;;;6.50;99.90;;;;;;5077213;28;20445;-83
2023/11/10 03:28:26;;;;;;;0.30;0.27;;;6.40;99.90;;;;;;5077100;28;20468;-83
2023/11/10 03:30:54;;;;;;;0.30;0.30;;;6.40;99.90;;;;;;5081088;28;20440;-82
2023/11/10 03:33:22;;;;;;;0.30;0.20;;;6.40;99.90;;;;;;5093921;28;20850;-81
2023/11/10 03:35:50;;;;;;;0.30;0.20;;;6.50;99.90;;;;;;5075635;28;20941;-82
2023/11/10 03:38:17;;;;;;;0.30;0.20;;;6.40;99.90;;;;;;5075955;28;20449;-83
2023/11/10 03:40:45;;;;;;;0.30;0.20;;;6.50;99.90;;;;;;5075763;28;20448;-83
2023/11/10 03:43:11;;;;;;;0.30;0.20;;;6.40;99.90;;;;;;5075201;28;20504;-84
2023/11/10 03:45:39;;;;;;;0.30;0.20;;;6.50;99.90;;;;;;5162370;22;20548;-78
2023/11/10 03:48:06;;;;;;;0.30;0.30;;;6.50;99.90;;;;;;5095736;28;20476;-78
2023/11/10 03:50:33;;;;;;;0.30;0.20;;;6.50;99.90;;;;;;5095559;28;20439;-78
2023/11/10 03:53:01;;;;;;;0.40;0.30;;;6.50;99.90;;;;;;5095529;28;20805;-77
2023/11/10 03:55:28;;;;;;;0.30;0.20;;;6.50;99.90;;;;;;5095344;28;20468;-78
2023/11/10 03:57:55;;;;;;;0.30;0.23;;;6.50;99.90;;;;;;5095483;28;20448;-78
2023/11/10 04:00:22;;;;;;;0.30;0.30;;;6.50;99.90;;;;;;5095297;28;20436;-78
2023/11/10 04:02:49;;;;;;;0.30;0.30;;;6.40;99.90;;;;;;5094983;28;20954;-78
2023/11/10 04:05:16;;;;;;;0.30;0.20;;;6.50;99.90;;;;;;5095251;28;20467;-78
2023/11/10 04:07:43;;;;;;;0.30;0.20;;;6.50;99.90;;;;;;5095360;28;20442;-78
2023/11/10 04:10:11;;;;;;;0.30;0.20;;;6.50;99.90;;;;;;5095203;28;20454;-78
2023/11/10 04:12:38;;;;;;;0.30;0.30;;;6.50;99.90;;;;;;5095248;28;20444;-78
2023/11/10 04:15:06;;;;;;;0.30;0.30;;;6.50;99.90;;;;;;5093966;28;20478;-78
2023/11/10 04:17:33;;;;;;;0.97;0.40;;;6.50;99.90;;;;;;5095084;28;20493;-78
2023/11/10 04:20:00;;;;;;;0.30;0.20;;;6.40;99.90;;;;;;5095041;28;20444;-78
2023/11/10 04:22:26;;;;;;;0.30;0.20;;;6.30;99.90;;;;;;5094919;28;20810;-78
2023/11/10 04:24:54;;;;;;;0.30;0.20;;;6.30;99.90;;;;;;5094930;28;20464;-78
2023/11/10 04:27:22;;;;;;;0.30;0.20;;;6.40;99.90;;;;;;5094958;28;20452;-78
2023/11/10 04:29:49;;;;;;;0.30;0.30;;;6.30;99.90;;;;;;5094751;28;20451;-78
2023/11/10 04:32:16;;;;;;;0.30;0.20;;;6.40;99.90;;;;;;5096248;28;20440;-78
2023/11/10 04:34:43;;;;;;;0.30;0.20;;;6.30;99.90;;;;;;5094750;28;20459;-78
2023/11/10 04:37:10;;;;;;;0.30;0.20;;;6.30;99.90;;;;;;5094394;28;20443;-78
2023/11/10 04:39:52;;;;;;;0.30;0.20;;;6.30;99.90;;;;;;5094648;28;20440;-78
2023/11/10 04:42:19;;;;;;;0.30;0.20;;;6.30;99.90;;;;;;5094607;28;20472;-78
2023/11/10 04:44:47;;;;;;;0.30;0.20;;;6.30;99.90;;;;;;5094173;28;20484;-77
2023/11/10 04:47:14;;;;;;;0.30;0.20;;;6.30;99.90;;;;;;5094532;28;20454;-77
2023/11/10 04:49:41;;;;;;;0.30;0.20;;;6.30;99.90;;;;;;5094562;28;20944;-78
2023/11/10 04:52:07;;;;;;;0.30;0.30;;;6.30;99.90;;;;;;5094073;28;20440;-78
2023/11/10 04:54:41;;;;;;;0.40;0.30;;;6.30;99.90;;;;;;5094183;28;20444;-78
2023/11/10 04:57:07;;;;;;;1.83;0.30;;;6.30;99.90;;;;;;5072767;28;20456;-78
2023/11/10 04:59:35;;;;;;;0.40;0.30;;;6.30;99.90;;;;;;5074063;28;20447;-78
2023/11/10 05:02:03;;;;;;;0.30;0.20;;;6.30;99.90;;;;;;5073865;28;20850;-78
2023/11/10 05:04:30;;;;;;;0.30;0.27;;;6.30;99.90;;;;;;5078864;28;20471;-78
2023/11/10 05:06:58;;;;;;;0.30;0.20;;;6.50;99.90;;;;;;5094123;28;20813;-78
2023/11/10 05:09:24;;;;;;;0.47;0.30;;;6.20;99.90;;;;;;5094180;28;20448;-78
2023/11/10 05:11:51;;;;;;;0.30;0.20;;;6.30;99.90;;;;;;5094179;28;20509;-78
2023/11/10 05:14:18;;;;;;;0.30;0.30;;;6.30;99.90;;;;;;5095029;28;20843;-79
2023/11/10 05:16:45;;;;;;;0.30;0.20;;;6.40;99.90;;;;;;5095060;28;20472;-79
2023/11/10 05:19:13;;;;;;;0.30;0.30;;;6.30;99.90;;;;;;5093923;28;20443;-79
2023/11/10 05:21:40;;;;;;;0.30;0.30;;;6.30;99.90;;;;;;5093928;28;20451;-78
2023/11/10 05:24:08;;;;;;;0.30;0.30;;;6.30;99.90;;;;;;5093934;28;20811;-78
2023/11/10 05:26:35;;;;;;;0.30;0.30;;;6.30;99.90;;;;;;5093761;28;20443;-78
2023/11/10 05:29:01;;;;;;;0.30;0.20;;;6.30;99.90;;;;;;5094011;28;20857;-78
2023/11/10 05:31:28;;;;;;;0.30;0.20;;;6.30;99.90;;;;;;5093834;28;20444;-78
2023/11/10 05:33:57;;;;;;;0.30;0.30;;;6.20;99.90;;;;;;5093724;28;20440;-78
2023/11/10 05:36:25;;;;;;;0.30;0.20;;;6.20;99.90;;;;;;5093978;28;20450;-78
2023/11/10 05:38:53;;;;;;;0.30;0.20;;;6.20;99.90;;;;;;5096426;28;20535;-78
2023/11/10 05:41:19;;;;;;;0.30;0.20;;;6.20;99.90;;;;;;5093829;28;20448;-78
2023/11/10 05:43:47;;;;;;;0.30;0.20;;;6.30;99.90;;;;;;5093646;28;20476;-78
2023/11/10 05:46:36;;;;;;;0.30;0.20;;;6.20;99.90;;;;;;5905114;22;20443;31
2023/11/10 05:49:03;;;;;;;0.30;0.20;;;6.20;99.90;;;;;;5032026;28;20530;-79
2023/11/10 05:51:31;;;;;;;0.30;0.20;;;6.20;99.90;;;;;;5033454;28;20435;-79
2023/11/10 05:53:58;;;;;;;0.30;0.30;;;6.30;99.90;;;;;;5033909;28;20453;-79
2023/11/10 05:56:25;;;;;;;0.30;0.30;;;6.30;99.90;;;;;;5053347;28;20448;-79
2023/11/10 05:58:52;;;;;;;0.30;0.20;;;6.30;99.90;;;;;;5053327;28;20814;-79
2023/11/10 06:01:23;;;;;;;0.30;0.20;;;6.30;99.90;;;;;;5053077;28;20460;-79
2023/11/10 06:03:50;;;;;;;0.30;0.20;;;6.40;99.90;;;;;;5053226;28;20511;-79
2023/11/10 06:06:17;;;;;;;0.30;0.30;;;6.40;99.90;;;;;;5052950;28;21072;-79
2023/11/10 06:08:45;;;;;;;0.30;0.20;;;6.40;99.90;;;;;;5053248;28;20454;-79
2023/11/10 06:11:20;;;;;;;0.30;0.20;;;6.50;99.90;;;;;;5053017;28;20488;-79
2023/11/10 06:13:47;;;;;;;0.30;0.20;;;6.60;99.90;;;;;;5053180;28;20426;-79
2023/11/10 06:16:14;;;;;;;0.40;0.27;;;6.60;99.90;;;;;;5053000;28;20523;-79
2023/11/10 06:18:41;;;;;;;0.30;0.20;;;6.60;99.90;;;;;;5053058;28;20464;-79
2023/11/10 06:21:08;;;;;;;0.30;0.20;;;6.60;99.90;;;;;;5052687;28;20973;-78
2023/11/10 06:23:35;;;;;;;0.30;0.20;;;6.60;99.90;;;;;;5052698;28;20548;-78
2023/11/10 06:26:05;;;;;;;0.30;0.20;;;6.60;99.90;;;;;;5052823;28;20466;-78
2023/11/10 06:28:32;;;;;;;0.30;0.20;;;6.60;99.90;;;;;;5052930;28;20454;-78
2023/11/10 06:30:59;;;;;;;0.30;0.20;;;6.50;99.90;;;;;;5052986;28;20856;-78
2023/11/10 06:33:26;;;;;;;0.30;0.30;;;6.40;99.90;;;;;;5052677;28;20438;-78
2023/11/10 06:35:52;;;;;;;0.30;0.30;;;6.30;99.90;;;;;;5052585;28;20450;-78
2023/11/10 06:38:19;;;;;;;0.30;0.30;;;6.30;99.90;;;;;;5053434;28;20797;-77
2023/11/10 06:40:46;;;;;;;0.30;0.30;;;6.30;99.90;;;;;;5056615;28;20457;-77
2023/11/10 06:43:14;;;;;;;0.30;0.30;;;6.20;99.90;;;;;;5056372;28;20512;-77
2023/11/10 06:45:41;;;;;;;0.30;0.20;;;6.20;99.90;;;;;;5056414;28;20511;-77
2023/11/10 06:48:07;;;;;;;0.30;0.30;;;6.30;99.90;;;;;;5056088;28;20981;-77
2023/11/10 06:50:35;;;;;;;0.30;0.20;;;6.20;99.90;;;;;;5056444;28;20445;-77
2023/11/10 06:53:01;;;;;;;0.30;0.30;;;6.20;99.90;;;;;;5056562;28;20445;-77
2023/11/10 06:55:28;;;;;;;0.30;0.20;;;6.20;99.90;;;;;;5056428;28;20548;-78
2023/11/10 06:57:55;;;;;;;0.30;0.30;;;6.20;99.90;;;;;;5057460;28;20438;-78
2023/11/10 07:00:26;;;;;;;0.40;0.40;;;6.20;99.90;;;;;;5055955;28;20446;-78
2023/11/10 07:02:56;;;;;;;0.30;0.30;;;6.20;99.90;;;;;;5056176;28;20519;-78
2023/11/10 07:05:25;;;;;;;0.30;0.30;;;6.20;99.90;;;;;;5056217;28;20515;-78
2023/11/10 07:07:52;;;;;;;0.30;0.30;;;6.10;99.90;;;;;;5056230;28;20471;-78
2023/11/10 07:10:19;;;;;;;0.30;0.20;;;6.00;99.90;;;;;;5056027;28;20446;-78
2023/11/10 07:12:46;;;;;;;0.30;0.30;;;6.10;99.90;;;;;;5056006;28;20449;-78
2023/11/10 07:15:13;;;;;;;0.30;0.27;;;6.10;99.90;;;;;;5055606;28;20977;-78
2023/11/10 07:17:41;;;;;;;0.30;0.20;;;6.10;99.90;;;;;;5056367;28;20469;-78
2023/11/10 07:20:11;;;;;;;0.30;0.30;;;6.20;99.90;;;;;;5059676;28;20930;-78
2023/11/10 07:22:38;;;;;;;0.30;0.20;;;6.10;99.90;;;;;;5059917;28;20521;-78
2023/11/10 07:25:06;;;;;;;0.30;0.30;;;6.00;99.90;;;;;;5231260;22;20428;-79
2023/11/10 07:27:33;;;;;;;0.30;0.30;;;6.00;99.90;;;;;;5059461;28;20454;-79
2023/11/10 07:30:00;;;;;;;0.30;0.30;;;6.00;99.90;;;;;;5060218;28;20450;-79
2023/11/10 07:32:27;;;;;;;0.40;0.30;;;6.00;99.90;;;;;;5057769;28;20461;-78
2023/11/10 07:34:56;;;;;;;0.30;0.30;;;6.00;99.90;;;;;;5055945;28;20466;-78
2023/11/10 07:37:23;;;;;;;0.30;0.20;;;6.10;99.90;;;;;;5055986;28;20523;-78
2023/11/10 07:39:50;;;;;;;0.30;0.20;;;6.30;99.90;;;;;;5055860;28;20477;-78
2023/11/10 07:42:17;;;;;;;0.30;0.20;;;8.60;99.90;;;;;;5055931;28;20449;-78
2023/11/10 07:44:44;;;;;;;0.30;0.20;;;;;;;;;;5055426;28;20474;-78
2023/11/10 07:47:11;;;;;;;0.30;0.20;;;6.50;99.90;;;;;;5055550;28;20438;-78
2023/11/10 07:49:37;;;;;;;0.70;0.30;;;6.50;99.90;;;;;;5054710;28;20446;-79
2023/11/10 07:52:06;;;;;;;0.30;0.30;;;6.50;99.90;;;;;;5055460;28;20445;-78
2023/11/10 07:54:39;;;;;;;0.30;0.20;;;6.50;99.90;;;;;;5055262;28;20461;-79
2023/11/10 07:57:06;;;;;;;0.30;0.30;;;6.50;99.90;;;;;;5055379;28;20433;-79
2023/11/10 07:59:33;;;;;;;0.30;0.20;;;6.60;99.90;;;;;;5054902;28;20995;-79
2023/11/10 08:02:01;;;;;;;0.30;0.20;;;6.70;99.90;;;;;;5055125;28;20503;-79
2023/11/10 08:04:28;;;;;;;0.30;0.30;;;6.70;99.90;;;;;;5054607;28;21002;-79
2023/11/10 08:06:56;;;;;;;0.30;0.20;;;6.70;99.90;;;;;;5055215;28;20449;-78
2023/11/10 08:09:24;;;;;;;0.30;0.20;;;6.80;99.90;;;;;;5055709;28;20507;-78
2023/11/10 08:11:51;;;;;;;0.30;0.23;;;6.80;99.90;;;;;;5055073;28;20449;-78
2023/11/10 08:14:18;;;;;;;0.40;0.30;;;6.90;99.90;;;;;;5054960;28;20472;-79
2023/11/10 08:16:44;;;;;;;0.40;0.30;;;7.00;99.90;;;;;;5054813;28;21037;-79
2023/11/10 08:19:11;;;;;;;0.30;0.27;;;7.20;99.90;;;;;;5055717;28;20452;-79
2023/11/10 08:21:38;;;;;;;0.30;0.30;;;7.20;99.90;;;;;;5054973;28;20446;-79
2023/11/10 08:24:05;;;;;;;0.30;0.20;;;7.40;99.90;;;;;;5055213;28;21016;-79
2023/11/10 08:26:34;;;;;;;0.30;0.30;;;7.50;99.90;;;;;;5054875;28;20485;-78
2023/11/10 08:29:00;;;;;;;0.30;0.20;;;7.50;99.90;;;;;;5054938;28;20474;-78
2023/11/10 08:31:28;;;;;;;0.30;0.20;;;7.50;99.90;;;;;;5054693;28;20434;-79
2023/11/10 08:33:54;;;;;;;0.40;0.30;;;7.50;99.90;;;;;;5054583;28;20938;-80
2023/11/10 08:36:22;;;;;;;0.30;0.20;;;7.50;99.90;;;;;;5054999;28;20438;-79
2023/11/10 08:38:49;;;;;;;0.30;0.20;;;7.60;99.90;;;;;;5055124;28;20541;-79
2023/11/10 08:41:17;;;;;;;0.30;0.20;;;7.60;99.90;;;;;;5055523;28;20464;-79
2023/11/10 08:43:45;;;;;;;0.30;0.20;;;7.60;99.90;;;;;;5055122;28;20897;-79
2023/11/10 08:46:12;;;;;;;0.30;0.30;;;7.60;99.90;;;;;;5054792;28;20466;-79
2023/11/10 08:48:39;;;;;;;0.30;0.30;;;7.60;99.90;;;;;;5055343;28;20442;-79
2023/11/10 08:51:06;;;;;;;0.30;0.30;;;7.50;99.90;;;;;;5055388;28;20965;-79
2023/11/10 08:53:32;;;;;;;0.30;0.20;;;7.60;99.90;;;;;;5055864;28;20829;-79
2023/11/10 08:55:59;;;;;;;0.30;0.30;;;7.60;99.90;;;;;;5054936;28;20465;-79
2023/11/10 08:58:26;;;;;;;0.30;0.30;;;7.70;99.90;;;;;;5055177;28;20445;-80
2023/11/10 09:00:54;;;;;;;0.30;0.20;;;7.60;99.90;;;;;;5053909;28;20960;-80
2023/11/10 09:03:20;;;;;;;0.30;0.20;;;7.60;99.90;;;;;;5054356;28;20473;-80
2023/11/10 09:05:47;;;;;;;0.33;0.27;;;7.60;99.90;;;;;;5055350;28;20474;-81
2023/11/10 09:08:14;;;;;;;0.30;0.30;;;7.60;99.90;;;;;;5056287;28;20807;-79
2023/11/10 09:10:41;;;;;;;0.30;0.30;;;8.00;99.90;;;;;;5056575;28;20461;-80
2023/11/10 09:13:09;;;;;;;0.30;0.30;;;8.40;99.90;;;;;;5056629;28;20496;-78
2023/11/10 09:15:36;;;;;;;0.60;0.40;;;8.50;99.90;;;;;;5056180;28;20504;-78
2023/11/10 09:18:05;;;;;;;0.37;0.30;;;8.50;99.90;;;;;;5056216;28;20452;-79
2023/11/10 09:20:31;;;;;;;0.30;0.30;;;8.70;99.90;;;;;;5057453;28;20444;-79
2023/11/10 09:22:59;;;;;;;0.40;0.40;;;9.00;99.90;;;;;;5056598;28;20453;-78
2023/11/10 09:25:26;;;;;;;0.40;0.30;;;9.00;99.90;;;;;;5057040;28;20478;-79
2023/11/10 09:27:55;;;;;;;0.30;0.30;;;9.00;99.90;;;;;;5055742;28;20929;-81
2023/11/10 09:30:24;;;;;;;0.30;0.30;;;8.80;99.90;;;;;;5055762;28;20450;-79
2023/11/10 09:32:51;;;;;;;0.63;0.30;;;8.70;99.90;;;;;;5055653;28;20960;-79
2023/11/10 09:35:20;;;;;;;0.30;0.20;;;8.70;99.90;;;;;;5056594;28;20840;-78
2023/11/10 09:37:46;;;;;;;0.30;0.30;;;8.70;99.90;;;;;;5056337;28;20966;-79
2023/11/10 09:40:14;;;;;;;0.30;0.20;;;8.60;99.90;;;;;;5056178;28;20488;-79
2023/11/10 09:42:42;;;;;;;0.30;0.20;;;8.50;99.90;;;;;;5055347;28;20438;-81
2023/11/10 09:45:12;;;;;;;2.77;0.30;;;8.50;99.90;;;;;;5054701;28;20498;-81
2023/11/10 09:47:41;;;;;;;0.40;0.30;;;8.50;99.90;;;;;;5055239;28;20445;-80
2023/11/10 09:50:09;;;;;;;0.30;0.30;;;8.40;99.90;;;;;;5054498;28;20438;-79
2023/11/10 09:52:38;;;;;;;2.53;0.40;;;8.40;99.90;;;;;;5055116;28;20445;-77
2023/11/10 09:55:07;;;;;;;0.57;0.30;;;8.10;99.90;;;;;;5055363;28;20504;-79
2023/11/10 09:57:34;;;;;;;0.40;0.30;;;7.90;99.90;;;;;;5054386;28;20440;-79
2023/11/10 10:00:03;;;;;;;0.30;0.30;;;7.70;99.90;;;;;;5053578;28;20981;-79
2023/11/10 10:02:30;;;;;;;0.30;0.20;;;7.40;99.90;;;;;;5053145;28;20457;-79
2023/11/10 10:04:57;;;;;;;0.30;0.30;;;7.40;99.90;;;;;;5053345;28;20506;-76
2023/11/10 10:07:24;;;;;;;0.30;0.30;;;7.30;99.90;;;;;;5054679;28;20493;-80
2023/11/10 10:09:52;;;;;;;0.30;0.20;;;7.20;99.90;;;;;;5059932;28;20452;-77
2023/11/10 10:12:19;;;;;;;0.30;0.20;;;7.20;99.90;;;;;;5054483;28;20434;-77
2023/11/10 10:14:54;;;;;;;0.43;0.37;;;7.10;99.90;;;;;;5056991;28;20462;-77
2023/11/10 10:17:31;;;;;;;0.30;0.30;;;7.10;99.90;;;;;;5057034;28;20425;-78
2023/11/10 10:20:05;;;;;;;0.30;0.23;;;7.00;99.90;;;;;;5056806;28;20418;-78
2023/11/10 10:22:33;;;;;;;0.30;0.20;;;7.00;99.90;;;;;;5057021;28;20418;-78
2023/11/10 10:25:01;;;;;;;0.40;0.30;;;7.00;99.90;;;;;;5056611;28;20488;-79
2023/11/10 10:27:28;;;;;;;0.30;0.20;;;7.10;99.90;;;;;;5056833;28;20438;-79
2023/11/10 10:29:55;;;;;;;0.30;0.20;;;7.20;99.90;;;;;;5057049;28;20454;-79
2023/11/10 10:32:23;;;;;;;0.30;0.20;;;7.30;99.90;;;;;;5056618;28;20825;-79
2023/11/10 10:34:49;;;;;;;0.30;0.20;;;7.50;99.90;;;;;;5056688;28;20461;-79
2023/11/10 10:37:18;;;;;;;0.40;0.40;;;7.60;99.90;;;;;;5056531;28;20442;-79
2023/11/10 10:39:46;;;;;;;0.30;0.20;;;7.70;99.90;;;;;;5056705;28;20473;-79
2023/11/10 10:42:15;;;;;;;0.40;0.40;;;7.80;99.90;;;;;;5056769;28;20452;-79
2023/11/10 10:44:44;;;;;;;0.30;0.30;;;7.80;99.90;;;;;;5056757;28;20485;-79
2023/11/10 10:47:11;;;;;;;0.30;0.30;;;7.70;99.90;;;;;;5057149;28;20441;-79
2023/11/10 10:49:39;;;;;;;0.30;0.30;;;7.80;99.90;;;;;;5057494;28;20437;-79
2023/11/10 10:52:07;;;;;;;0.30;0.20;;;7.80;99.90;;;;;;5058877;28;20450;-78
2023/11/10 10:54:36;;;;;;;0.50;0.50;;;7.80;99.90;;;;;;5057991;28;20527;-79
2023/11/10 10:57:05;;;;;;;0.30;0.30;;;7.80;99.90;;;;;;5058049;28;20449;-79
2023/11/10 10:59:36;;;;;;;0.30;0.30;;;7.70;99.90;;;;;;5056633;28;20452;-79
2023/11/10 11:02:04;;;;;;;0.40;0.30;;;7.70;99.90;;;;;;5056632;28;20842;-79
2023/11/10 11:04:44;;;;;;;0.40;0.30;;;7.70;99.90;;;;;;5056504;28;21013;-79
2023/11/10 11:07:28;;;;;;;0.30;0.30;;;7.70;99.90;;;;;;5056980;28;20432;-79
2023/11/10 11:10:14;;;;;;;0.30;0.30;;;7.80;99.90;;;;;;5056824;28;20437;-79
2023/11/10 11:13:24;;;;;;;0.50;0.20;;;7.80;99.90;;;;;;5056907;28;20894;-79
2023/11/10 11:16:02;;;;;;;0.30;0.20;;;7.80;99.90;;;;;;5056472;28;20458;-79
2023/11/10 11:18:49;;;;;;;0.40;0.30;;;7.70;99.90;;;;;;5056456;28;20925;-80
2023/11/10 11:21:16;;;;;;;0.30;0.20;;;7.70;99.90;;;;;;5056352;28;20417;-79
2023/11/10 11:23:43;;;;;;;0.30;0.30;;;7.70;99.90;;;;;;5055764;28;20493;-78
2023/11/10 11:26:15;;;;;;;0.30;0.30;;;7.80;99.90;;;;;;5055438;28;20485;-79
2023/11/10 11:28:42;;;;;;;0.30;0.30;;;7.80;99.90;;;;;;5056312;28;20434;-79
2023/11/10 11:31:12;;;;;;;0.30;0.30;;;7.90;99.90;;;;;;5055961;28;20450;-78
2023/11/10 11:33:45;;;;;;;0.40;0.30;;;7.80;99.90;;;;;;5056014;28;20453;-79
2023/11/10 11:36:28;;;;;;;0.30;0.30;;;7.80;99.90;;;;;;5056390;28;20468;-83
2023/11/10 11:38:58;;;;;;;0.40;0.30;;;7.60;99.90;;;;;;5038793;28;20495;-78
2023/11/10 11:41:28;;;;;;;0.30;0.30;;;7.70;99.90;;;;;;5056379;28;20450;-78
2023/11/10 11:43:57;;;;;;;0.30;0.30;;;7.70;99.90;;;;;;5055952;28;20486;-80
2023/11/10 11:46:42;;;;;;;0.80;0.30;;;7.70;99.90;;;;;;5056317;28;20456;-82
2023/11/10 11:49:10;;;;;;;1.90;0.40;;;8.70;99.90;;;;;;5058980;28;20488;-79
2023/11/10 11:51:37;;;;;;;0.30;0.30;;;8.20;99.90;;;;;;5059004;28;20449;-79
2023/11/10 11:54:05;;;;;;;0.30;0.30;;;;;;;;;;5060117;28;20446;-79
2023/11/10 11:56:32;;;;;;;0.30;0.30;;;7.60;99.90;;;;;;5056154;28;20450;-79
2023/11/10 11:58:59;;;;;;;2.10;0.60;;;7.50;99.90;;;;;;5055588;28;20976;-78
2023/11/10 12:01:25;;;;;;;1.03;0.50;;;7.50;99.90;;;;;;5056380;28;20797;-80
2023/11/10 12:03:54;;;;;;;0.30;0.20;;;7.60;99.90;;;;;;5056118;28;20484;-78
2023/11/10 12:06:20;;;;;;;0.40;0.30;;;7.70;99.90;;;;;;5056374;28;20446;-78
2023/11/10 12:08:48;;;;;;;0.30;0.30;;;7.70;99.90;;;;;;5056263;28;20449;-79
2023/11/10 12:11:15;;;;;;;0.50;0.40;;;7.70;99.90;;;;;;5055804;28;20450;-79
2023/11/10 12:13:42;;;;;;;0.30;0.30;;;7.70;99.90;;;;;;5056050;28;20938;-79
2023/11/10 12:16:10;;;;;;;0.30;0.30;;;7.60;99.90;;;;;;5056776;28;20462;-80
2023/11/10 12:18:37;;;;;;;0.40;0.30;;;7.60;99.90;;;;;;5055996;28;20817;-78
2023/11/10 12:21:07;;;;;;;0.30;0.30;;;7.40;99.90;;;;;;5055731;28;20560;-80
2023/11/10 12:23:34;;;;;;;0.30;0.30;;;7.50;99.90;;;;;;5055242;28;20407;-78
2023/11/10 12:26:00;;;;;;;0.30;0.30;;;7.40;99.90;;;;;;5054698;28;20492;-78
2023/11/10 12:28:27;;;;;;;0.30;0.30;;;7.30;99.90;;;;;;5055294;28;20441;-78
2023/11/10 12:30:55;;;;;;;0.83;0.40;;;7.40;99.90;;;;;;5056090;28;20426;-77
2023/11/10 12:33:23;;;;;;;0.50;0.40;;;7.40;99.90;;;;;;5055148;28;20446;-78
2023/11/10 12:36:02;;;;;;;0.40;0.30;;;7.50;99.90;;;;;;5055619;28;20553;-78
2023/11/10 12:38:34;;;;;;;0.43;0.43;;;7.60;99.90;;;;;;5055443;28;20987;-79
2023/11/10 12:41:03;;;;;;;0.30;0.30;;;7.80;99.90;;;;;;5055162;28;20418;-78
2023/11/10 12:43:30;;;;;;;1.20;0.33;;;8.00;99.90;;;;;;5055145;28;20538;-78
2023/11/10 12:45:56;;;;;;;0.30;0.30;;;8.10;99.90;;;;;;5055108;28;20481;-78
2023/11/10 12:48:25;;;;;;;2.93;0.40;;;8.10;99.90;;;;;;5055003;28;20446;-78
2023/11/10 12:50:55;;;;;;;1.67;0.40;;;8.00;99.90;;;;;;5055266;28;20442;-78
2023/11/10 12:53:22;;;;;;;0.40;0.30;;;8.00;99.90;;;;;;5054933;28;20942;-78
2023/11/10 12:55:50;;;;;;;0.30;0.30;;;8.00;99.90;;;;;;5054673;28;20990;-78
2023/11/10 12:58:17;;;;;;;0.50;0.40;;;8.00;99.90;;;;;;5054920;28;20433;-78
2023/11/10 13:00:44;;;;;;;0.30;0.27;;;8.00;99.90;;;;;;5055789;28;20446;-78
2023/11/10 13:03:12;;;;;;;0.40;0.40;;;8.00;99.90;;;;;;5057463;28;20445;-78